Time;durP1;ratioP1;P1;durP2;ratioP2;P2;SDS_P1;SDS_P2;PMS_P1;PMS_P2;Temp;Humidity;BMP_temperature;BMP_pressure;BME280_temperature;BME280_humidity;BME280_pressure;Samples;Min_cycle;Max_cycle;Signal;HPM_P1;HPM_P2
2021/10/31 00:01:01;;;;;;;0.40;0.30;;;;;;;11.60;70.41;100325.69;5072428;28;20845;-70
2021/10/31 00:03:28;;;;;;;0.40;0.30;;;;;;;11.67;71.04;100329.84;5072422;28;20464;-70
2021/10/31 00:05:56;;;;;;;0.40;0.30;;;;;;;11.71;70.36;100325.38;5072639;28;20441;-70
2021/10/31 00:08:22;;;;;;;0.40;0.30;;;;;;;11.78;70.48;100325.75;5072543;28;20468;-71
2021/10/31 00:10:49;;;;;;;0.40;0.30;;;;;;;11.83;70.49;100322.91;5072272;28;20805;-71
2021/10/31 00:13:16;;;;;;;0.40;0.30;;;;;;;11.81;70.87;100319.66;5072629;28;20448;-71
2021/10/31 00:15:43;;;;;;;0.40;0.30;;;;;;;11.89;69.98;100331.69;5072434;28;20485;-70
2021/10/31 00:18:09;;;;;;;0.40;0.30;;;;;;;11.89;70.89;100331.69;5072511;28;20488;-70
2021/10/31 00:20:36;;;;;;;2.83;2.63;;;;;;;11.95;71.28;100327.69;5072195;28;20938;-70
2021/10/31 00:23:04;;;;;;;0.40;0.20;;;;;;;11.94;71.15;100329.63;5072495;28;20444;-70
2021/10/31 00:25:30;;;;;;;0.40;0.30;;;;;;;11.97;70.63;100333.63;5072489;28;20485;-71
2021/10/31 00:27:57;;;;;;;1.07;1.07;;;;;;;11.94;70.34;100331.53;5072485;28;20478;-71
2021/10/31 00:30:23;;;;;;;0.40;0.30;;;;;;;11.95;70.10;100344.00;5075755;28;20951;-69
2021/10/31 00:32:50;;;;;;;0.87;0.87;;;;;;;11.82;70.32;100340.25;5075970;28;20442;-69
2021/10/31 00:35:16;;;;;;;0.40;0.30;;;;;;;11.75;70.85;100348.88;5075818;28;20485;-69
2021/10/31 00:37:42;;;;;;;0.40;0.30;;;;;;;11.77;71.11;100349.34;5075457;28;20841;-69
2021/10/31 00:40:12;;;;;;;0.40;0.30;;;;;;;11.74;70.90;100347.28;5075582;28;20467;-69
2021/10/31 00:42:38;;;;;;;0.40;0.23;;;;;;;11.75;71.95;100358.91;5075700;28;20445;-69
2021/10/31 00:45:06;;;;;;;10.80;7.90;;;;;;;11.76;72.71;100352.38;5075396;28;20810;-69
2021/10/31 00:47:33;;;;;;;1.93;1.80;;;;;;;11.88;72.30;100346.38;5075588;28;20465;-69
2021/10/31 00:50:00;;;;;;;0.50;0.27;;;;;;;11.96;72.57;100348.31;5075682;28;20448;-69
2021/10/31 00:52:27;;;;;;;0.40;0.20;;;;;;;12.00;72.95;100360.16;5075548;28;20445;-69
2021/10/31 00:54:54;;;;;;;0.40;0.30;;;;;;;12.05;72.99;100349.94;5075470;28;20715;-69
2021/10/31 00:57:23;;;;;;;0.40;0.30;;;;;;;12.06;73.43;100362.38;5075547;28;20468;-69
2021/10/31 00:59:49;;;;;;;0.50;0.50;;;;;;;12.03;73.87;100349.44;5075445;28;20444;-69
2021/10/31 01:02:16;;;;;;;0.40;0.40;;;;;;;12.07;74.24;100355.03;5075421;28;20441;-69
2021/10/31 01:04:47;;;;;;;1.83;1.73;;;;;;;12.04;74.76;100355.66;5075014;28;20449;-69
2021/10/31 01:07:32;;;;;;;0.40;0.30;;;;;;;12.06;74.31;100367.81;5075316;28;20465;-69
2021/10/31 01:10:08;;;;;;;0.40;0.33;;;;;;;12.06;73.95;100359.66;5075299;28;20479;-69
2021/10/31 01:12:49;;;;;;;3.07;2.40;;;;;;;12.06;74.77;100367.03;5075227;28;20429;-69
2021/10/31 01:15:22;;;;;;;0.40;0.30;;;;;;;12.10;73.99;100368.78;5075076;28;20484;-69
2021/10/31 01:18:19;;;;;;;0.40;0.30;;;;;;;12.14;74.35;100366.25;5074779;28;21000;-69
2021/10/31 01:20:53;;;;;;;0.40;0.30;;;;;;;12.10;72.96;100374.22;5075038;28;20425;-69
2021/10/31 01:23:45;;;;;;;0.40;0.30;;;;;;;12.04;72.89;100366.53;5075100;28;20417;-69
2021/10/31 01:26:23;;;;;;;1.63;1.53;;;;;;;11.94;72.75;100364.09;5074925;28;20433;-69
2021/10/31 01:29:09;;;;;;;4.10;3.80;;;;;;;11.96;73.77;100370.84;5074503;28;20919;-69
2021/10/31 01:31:44;;;;;;;0.40;0.30;;;;;;;11.93;73.81;100368.75;5074851;28;20456;-69
2021/10/31 01:34:18;;;;;;;0.40;0.30;;;;;;;11.89;73.22;100372.41;5074804;28;20461;-69
2021/10/31 01:36:55;;;;;;;0.40;0.30;;;;;;;11.91;74.97;100370.16;5074741;28;20476;-70
2021/10/31 01:39:28;;;;;;;0.40;0.30;;;;;;;11.94;75.53;100369.53;5074395;28;20926;-70
2021/10/31 01:42:03;;;;;;;2.30;2.10;;;;;;;11.99;75.11;100380.25;5074693;28;20424;-69
2021/10/31 01:44:42;;;;;;;0.40;0.27;;;;;;;11.97;74.90;100377.84;5074383;28;20428;-69
2021/10/31 01:47:15;;;;;;;0.40;0.30;;;;;;;11.99;75.05;100375.59;5074224;28;20842;-69
2021/10/31 01:49:48;;;;;;;0.40;0.30;;;;;;;11.97;75.46;100377.06;5074428;28;20444;-68
2021/10/31 01:52:18;;;;;;;0.40;0.30;;;;;;;11.93;76.26;100376.09;5074378;28;20457;-68
2021/10/31 01:54:50;;;;;;;0.40;0.30;;;;;;;11.90;75.89;100382.13;5074151;28;20487;-69
2021/10/31 01:57:21;;;;;;;0.40;0.30;;;;;;;11.88;76.31;100392.53;5074184;28;20489;-69
2021/10/31 01:59:56;;;;;;;0.97;0.97;;;;;;;11.88;77.13;100389.81;5074296;28;20430;-69
2021/10/31 02:02:25;;;;;;;0.40;0.30;;;;;;;11.84;76.96;100393.13;5074024;28;20425;-69
2021/10/31 02:04:54;;;;;;;0.40;0.30;;;;;;;11.88;76.51;100397.94;5073802;28;20461;-69
2021/10/31 02:07:21;;;;;;;0.40;0.30;;;;;;;11.87;76.15;100402.59;5074105;28;20461;-69
2021/10/31 02:09:50;;;;;;;0.40;0.30;;;;;;;11.84;77.01;100398.56;5074052;28;20464;-70
2021/10/31 02:12:18;;;;;;;0.40;0.20;;;;;;;11.80;76.92;100394.84;5057299;28;20533;-70
2021/10/31 02:14:46;;;;;;;1.93;1.83;;;;;;;11.77;76.71;100400.88;5053822;28;20486;-69
2021/10/31 02:17:15;;;;;;;0.40;0.27;;;;;;;11.74;75.98;100398.81;5053954;28;20866;-69
2021/10/31 02:19:43;;;;;;;0.40;0.30;;;;;;;11.72;76.07;100406.47;5053969;28;20438;-69
2021/10/31 02:22:16;;;;;;;0.40;0.30;;;;;;;11.66;75.65;100405.00;5053887;28;20460;-69
2021/10/31 02:24:45;;;;;;;0.40;0.30;;;;;;;11.62;75.40;100417.59;5053852;28;20469;-69
2021/10/31 02:27:14;;;;;;;0.40;0.30;;;;;;;11.53;75.95;100417.56;5053726;28;20489;-69
2021/10/31 02:29:49;;;;;;;0.40;0.30;;;;;;;11.45;75.87;100421.00;5053774;28;20449;-69
2021/10/31 02:32:16;;;;;;;0.40;0.30;;;;;;;11.39;77.28;100422.28;5053653;28;20453;-69
2021/10/31 02:34:43;;;;;;;12.10;8.20;;;;;;;11.33;78.25;100413.47;5053547;28;20550;-69
2021/10/31 02:37:10;;;;;;;0.40;0.30;;;;;;;11.27;80.10;100417.41;5053536;28;20455;-69
2021/10/31 02:39:36;;;;;;;0.40;0.30;;;;;;;11.24;80.53;100412.59;5053264;28;20935;-69
2021/10/31 02:42:05;;;;;;;0.40;0.30;;;;;;;11.21;81.48;100402.38;5053561;28;20449;-70
2021/10/31 02:44:32;;;;;;;0.73;0.73;;;;;;;11.16;81.78;100410.66;5071237;28;20464;-72
2021/10/31 02:46:59;;;;;;;0.50;0.50;;;;;;;11.13;81.98;100408.53;5073414;28;20496;-71
2021/10/31 02:49:26;;;;;;;0.40;0.30;;;;;;;11.14;82.69;100415.56;5073130;28;20437;-69
2021/10/31 02:51:58;;;;;;;0.40;0.30;;;;;;;11.12;82.97;100417.78;5072971;28;20494;-69
2021/10/31 02:54:33;;;;;;;0.40;0.30;;;;;;;11.09;82.93;100412.97;5073338;28;20436;-69
2021/10/31 02:57:03;;;;;;;2.50;2.40;;;;;;;11.06;83.39;100405.47;5073316;28;20925;-69
2021/10/31 02:59:44;;;;;;;0.40;0.30;;;;;;;11.00;84.13;100418.34;5073382;28;20425;-69
2021/10/31 03:02:11;;;;;;;0.40;0.30;;;;;;;11.01;84.40;100419.94;5073279;28;20430;-70
2021/10/31 03:04:38;;;;;;;0.40;0.30;;;;;;;10.97;84.85;100426.28;5072869;28;20457;-69
2021/10/31 03:07:05;;;;;;;0.40;0.30;;;;;;;10.92;84.38;100416.34;5073137;28;20457;-69
2021/10/31 03:09:32;;;;;;;0.40;0.30;;;;;;;10.82;83.18;100413.91;5073203;28;20449;-69
2021/10/31 03:12:00;;;;;;;0.40;0.30;;;;;;;10.80;82.20;100416.94;5073183;28;20445;-69
2021/10/31 03:14:26;;;;;;;1.00;1.00;;;;;;;10.68;82.13;100418.56;5073084;28;20453;-70
2021/10/31 03:16:55;;;;;;;0.40;0.30;;;;;;;10.68;81.29;100423.97;5073102;28;20466;-69
2021/10/31 03:19:21;;;;;;;1.13;1.03;;;;;;;10.67;81.35;100422.34;5073194;28;20441;-69
2021/10/31 03:21:48;;;;;;;0.40;0.30;;;;;;;10.56;81.43;100421.78;5073089;28;20441;-69
2021/10/31 03:24:14;;;;;;;0.40;0.30;;;;;;;10.53;82.09;100423.19;5073098;28;20452;-69
2021/10/31 03:26:41;;;;;;;0.40;0.30;;;;;;;10.46;83.78;100422.03;5072702;28;20461;-69
2021/10/31 03:29:08;;;;;;;0.40;0.30;;;;;;;10.50;84.83;100423.03;5072988;28;20433;-69
2021/10/31 03:31:34;;;;;;;0.40;0.30;;;;;;;10.47;85.88;100426.34;5074408;28;20437;-72
2021/10/31 03:34:02;;;;;;;2.30;2.20;;;;;;;10.49;86.20;100416.81;5072980;28;20448;-72
2021/10/31 03:36:28;;;;;;;0.40;0.30;;;;;;;10.52;86.64;100427.00;5072851;28;20489;-73
2021/10/31 03:38:55;;;;;;;0.70;0.60;;;;;;;10.47;87.46;100429.84;5072930;28;20449;-73
2021/10/31 03:41:21;;;;;;;0.40;0.30;;;;;;;10.54;87.14;100440.28;5072463;28;20947;-72
2021/10/31 03:43:48;;;;;;;0.40;0.30;;;;;;;10.58;87.72;100441.25;5072909;28;20449;-72
2021/10/31 03:46:14;;;;;;;0.40;0.30;;;;;;;10.57;88.23;100443.16;5072826;28;20437;-73
2021/10/31 03:48:41;;;;;;;0.40;0.30;;;;;;;10.65;88.25;100438.13;5072827;28;20445;-72
2021/10/31 03:51:08;;;;;;;0.40;0.30;;;;;;;10.66;88.00;100454.06;5072852;28;20437;-72
2021/10/31 03:53:35;;;;;;;0.40;0.30;;;;;;;10.71;88.35;100447.72;5072833;28;20448;-72
2021/10/31 03:56:01;;;;;;;0.40;0.30;;;;;;;10.78;88.11;100443.50;5072576;28;20489;-72
2021/10/31 03:58:28;;;;;;;0.40;0.30;;;;;;;10.81;88.12;100451.03;5072785;28;20441;-74
2021/10/31 04:00:54;;;;;;;0.40;0.30;;;;;;;10.85;88.27;100453.94;5072716;28;20450;-73
2021/10/31 04:03:21;;;;;;;0.40;0.30;;;;;;;10.85;87.56;100451.22;5073269;28;20889;-74
2021/10/31 04:05:47;;;;;;;0.40;0.30;;;;;;;10.78;86.74;100450.84;5076528;28;20417;-73
2021/10/31 04:08:15;;;;;;;0.40;0.30;;;;;;;10.76;85.45;100448.44;5076344;28;20515;-73
2021/10/31 04:10:41;;;;;;;0.40;0.30;;;;;;;10.72;85.62;100444.75;5076422;28;20445;-75
2021/10/31 04:13:08;;;;;;;0.40;0.30;;;;;;;10.72;85.26;100452.06;5076534;28;20445;-76
2021/10/31 04:15:34;;;;;;;0.40;0.30;;;;;;;10.71;85.07;100445.81;5076183;28;20480;-71
2021/10/31 04:18:00;;;;;;;0.40;0.30;;;;;;;10.78;86.12;100453.53;5076177;28;20458;-71
2021/10/31 04:20:27;;;;;;;0.40;0.30;;;;;;;10.83;86.42;100453.44;5076224;28;20452;-71
2021/10/31 04:22:53;;;;;;;0.40;0.30;;;;;;;10.89;87.13;100462.22;5075836;28;20860;-69
2021/10/31 04:25:21;;;;;;;0.40;0.27;;;;;;;10.89;87.42;100467.66;5076173;28;20440;-69
2021/10/31 04:27:48;;;;;;;1.07;1.07;;;;;;;10.85;87.91;100465.56;5075966;28;20518;-71
2021/10/31 04:30:14;;;;;;;0.40;0.30;;;;;;;10.89;88.90;100464.94;5076290;28;20467;-70
2021/10/31 04:32:41;;;;;;;0.70;0.70;;;;;;;10.90;89.38;100464.66;5075977;28;20445;-70
2021/10/31 04:35:08;;;;;;;0.40;0.30;;;;;;;10.92;89.69;100467.06;5075539;28;21064;-71
2021/10/31 04:37:38;;;;;;;0.40;0.30;;;;;;;10.98;89.94;100469.34;5075810;28;20469;-71
2021/10/31 04:40:07;;;;;;;0.40;0.20;;;;;;;11.08;89.48;100477.25;5075538;28;20479;-71
2021/10/31 04:42:35;;;;;;;0.60;0.60;;;;;;;11.13;89.38;100480.94;5075763;28;20445;-71
2021/10/31 04:45:01;;;;;;;0.40;0.30;;;;;;;11.18;88.99;100475.38;5075737;28;20445;-71
2021/10/31 04:47:28;;;;;;;0.40;0.30;;;;;;;11.19;88.99;100477.00;5075680;28;20465;-70
2021/10/31 04:49:54;;;;;;;0.40;0.30;;;;;;;11.24;89.39;100474.94;5075646;28;20437;-71
2021/10/31 04:52:21;;;;;;;0.40;0.30;;;;;;;11.31;89.10;100486.19;5075674;28;20453;-70
2021/10/31 04:54:47;;;;;;;0.40;0.30;;;;;;;11.37;89.49;100474.09;5075529;28;20797;-71
2021/10/31 04:57:14;;;;;;;0.40;0.30;;;;;;;11.43;89.27;100469.34;5075344;28;20492;-70
2021/10/31 04:59:42;;;;;;;0.40;0.30;;;;;;;11.39;88.91;100470.28;5075483;28;20444;-70
2021/10/31 05:02:08;;;;;;;0.40;0.30;;;;;;;11.38;88.33;100474.91;5075477;28;20502;-71
2021/10/31 05:04:35;;;;;;;0.40;0.30;;;;;;;11.48;89.19;100476.56;5075111;28;20877;-71
2021/10/31 05:07:02;;;;;;;0.40;0.30;;;;;;;11.60;88.28;100472.19;5075318;28;20472;-70
2021/10/31 05:09:28;;;;;;;0.40;0.30;;;;;;;11.67;87.29;100470.94;5075362;28;20445;-71
2021/10/31 05:11:54;;;;;;;0.40;0.20;;;;;;;11.66;85.42;100480.19;5075278;28;20464;-70
2021/10/31 05:14:21;;;;;;;0.50;0.30;;;;;;;11.65;85.42;100479.38;5074798;28;20442;-71
2021/10/31 05:16:49;;;;;;;0.40;0.20;;;;;;;11.65;85.67;100470.44;5074997;28;20492;-71
2021/10/31 05:19:16;;;;;;;0.67;0.60;;;;;;;11.68;87.28;100476.03;5075150;28;20457;-71
2021/10/31 05:21:42;;;;;;;0.40;0.20;;;;;;;11.78;88.17;100470.34;5074781;28;20476;-70
2021/10/31 05:24:09;;;;;;;0.40;0.30;;;;;;;11.84;88.34;100482.69;5075037;28;20446;-70
2021/10/31 05:26:35;;;;;;;0.40;0.30;;;;;;;11.88;88.49;100480.16;5074641;28;20461;-70
2021/10/31 05:29:01;;;;;;;0.40;0.30;;;;;;;11.82;88.82;100476.78;5074910;28;20445;-70
2021/10/31 05:31:28;;;;;;;0.40;0.20;;;;;;;11.88;89.16;100477.44;5074888;28;20448;-70
2021/10/31 05:33:57;;;;;;;0.40;0.30;;;;;;;11.98;88.55;100470.94;5074834;28;20441;-70
2021/10/31 05:36:23;;;;;;;0.40;0.30;;;;;;;12.00;88.38;100485.03;5074305;28;21002;-70
2021/10/31 05:38:50;;;;;;;0.40;0.30;;;;;;;12.02;88.22;100480.06;5074720;28;20453;-73
2021/10/31 05:41:16;;;;;;;0.40;0.20;;;;;;;12.02;88.42;100482.78;5074720;28;20448;-69
2021/10/31 05:43:43;;;;;;;0.40;0.30;;;;;;;12.02;88.81;100489.00;5074629;28;20827;-69
2021/10/31 05:46:11;;;;;;;0.40;0.30;;;;;;;12.00;88.74;100485.03;5074529;28;20473;-69
2021/10/31 05:48:37;;;;;;;0.40;0.30;;;;;;;11.96;89.10;100494.91;5074578;28;20503;-69
2021/10/31 05:51:05;;;;;;;0.40;0.30;;;;;;;11.93;89.52;100490.88;5074449;28;20449;-69
2021/10/31 05:53:31;;;;;;;0.40;0.30;;;;;;;11.89;89.86;100489.09;5074457;28;20437;-69
2021/10/31 05:55:58;;;;;;;0.40;0.30;;;;;;;11.88;89.38;100499.16;5074284;28;20481;-69
2021/10/31 05:58:24;;;;;;;0.40;0.30;;;;;;;11.77;88.72;100497.78;5074404;28;20436;-69
2021/10/31 06:00:52;;;;;;;0.67;0.67;;;;;;;11.73;87.84;100503.06;5073912;28;20954;-70
2021/10/31 06:03:18;;;;;;;0.57;0.57;;;;;;;11.66;87.90;100496.47;5073974;28;20559;-69
2021/10/31 06:05:47;;;;;;;0.40;0.30;;;;;;;11.63;87.63;100492.44;5074211;28;20427;-69
2021/10/31 06:08:16;;;;;;;0.40;0.30;;;;;;;11.61;87.25;100494.69;5074077;28;20457;-69
2021/10/31 06:10:42;;;;;;;0.40;0.30;;;;;;;11.58;86.68;100500.72;5073773;28;20536;-69
2021/10/31 06:13:09;;;;;;;0.40;0.30;;;;;;;11.51;87.05;100500.34;5074006;28;20445;-70
2021/10/31 06:15:36;;;;;;;0.40;0.30;;;;;;;11.50;88.25;100504.16;5073901;28;20489;-69
2021/10/31 06:18:02;;;;;;;0.40;0.30;;;;;;;11.53;88.71;100508.97;5073884;28;20449;-69
2021/10/31 06:20:29;;;;;;;0.40;0.30;;;;;;;11.52;89.29;100504.69;5073955;28;20782;-70
2021/10/31 06:22:55;;;;;;;0.73;0.67;;;;;;;11.47;90.07;100507.53;5073867;28;20510;-70
2021/10/31 06:25:23;;;;;;;0.40;0.30;;;;;;;11.49;90.69;100508.78;5073623;28;20446;-69
2021/10/31 06:27:49;;;;;;;0.40;0.30;;;;;;;11.54;90.27;100519.50;5073183;28;20468;-69
2021/10/31 06:30:16;;;;;;;0.47;0.40;;;;;;;11.59;90.28;100518.59;5073753;28;20444;-70
2021/10/31 06:32:42;;;;;;;0.40;0.30;;;;;;;11.59;90.29;100524.81;5073664;28;20441;-70
2021/10/31 06:35:09;;;;;;;0.40;0.30;;;;;;;11.61;90.20;100535.38;5073682;28;20441;-70
2021/10/31 06:37:36;;;;;;;3.63;3.40;;;;;;;11.68;89.58;100537.63;5073102;28;20924;-70
2021/10/31 06:40:03;;;;;;;0.40;0.30;;;;;;;11.68;89.91;100537.63;5073243;28;20437;-70
2021/10/31 06:42:31;;;;;;;0.50;0.50;;;;;;;11.73;89.45;100532.06;5073500;28;20452;-70
2021/10/31 06:44:57;;;;;;;0.40;0.30;;;;;;;11.78;87.85;100535.47;5073544;28;20519;-70
2021/10/31 06:47:24;;;;;;;0.40;0.30;;;;;;;11.84;87.15;100539.69;5073385;28;20461;-69
2021/10/31 06:49:51;;;;;;;0.40;0.30;;;;;;;11.95;86.53;100542.94;5073075;28;20477;-69
2021/10/31 06:52:17;;;;;;;0.40;0.30;;;;;;;11.99;85.24;100553.97;5073127;28;21042;-69
2021/10/31 06:54:44;;;;;;;0.40;0.30;;;;;;;12.06;86.31;100555.16;5073409;28;20444;-71
2021/10/31 06:57:10;;;;;;;0.50;0.40;;;;;;;12.19;85.88;100560.81;5073231;28;20485;-71
2021/10/31 06:59:38;;;;;;;0.40;0.30;;;;;;;12.28;85.79;100557.00;5073050;28;20488;-72
2021/10/31 07:02:05;;;;;;;0.40;0.30;;;;;;;12.36;85.35;100558.97;5073320;28;20498;-72
2021/10/31 07:04:32;;;;;;;0.40;0.30;;;;;;;12.47;85.09;100559.47;5073029;28;20897;-71
2021/10/31 07:06:58;;;;;;;0.40;0.30;;;;;;;12.55;84.95;100560.63;5073148;28;20903;-71
2021/10/31 07:09:25;;;;;;;0.40;0.30;;;;;;;12.65;84.73;100559.53;5073245;28;20445;-71
2021/10/31 07:11:52;;;;;;;0.40;0.30;;;;;;;12.70;84.51;100560.19;5073137;28;20536;-72
2021/10/31 07:14:19;;;;;;;0.40;0.20;;;;;;;12.75;84.22;100560.06;5073193;28;20449;-72
2021/10/31 07:16:47;;;;;;;0.50;0.30;;;;;;;12.78;83.96;100573.00;5072988;28;20503;-72
2021/10/31 07:19:13;;;;;;;0.40;0.20;;;;;;;12.80;84.10;100568.06;5073157;28;20448;-71
2021/10/31 07:21:40;;;;;;;0.40;0.20;;;;;;;12.84;83.49;100570.94;5073103;28;20445;-70
2021/10/31 07:24:07;;;;;;;0.40;0.30;;;;;;;12.83;83.56;100564.69;5073116;28;20896;-68
2021/10/31 07:26:34;;;;;;;0.40;0.30;;;;;;;12.94;83.61;100578.00;5073010;28;20458;-69
2021/10/31 07:29:01;;;;;;;0.40;0.20;;;;;;;12.96;83.55;100576.56;5072750;28;20444;-68
2021/10/31 07:31:32;;;;;;;0.40;0.30;;;;;;;13.05;83.72;100574.66;5073007;28;20536;-68
2021/10/31 07:34:00;;;;;;;0.40;0.30;;;;;;;13.16;82.89;100577.09;5067158;28;20458;-70
2021/10/31 07:36:26;;;;;;;0.40;0.30;;;;;;;13.19;82.94;100571.78;5056598;28;20492;-69
2021/10/31 07:38:53;;;;;;;0.40;0.30;;;;;;;13.27;83.02;100576.47;5076238;28;20437;-70
2021/10/31 07:41:20;;;;;;;0.40;0.30;;;;;;;13.30;82.98;100575.03;5076957;28;20448;-71
2021/10/31 07:43:46;;;;;;;0.40;0.20;;;;;;;13.39;82.33;100564.97;5076959;28;20473;-70
2021/10/31 07:46:13;;;;;;;0.87;0.87;;;;;;;13.46;81.87;100568.00;5076762;28;20442;-70
2021/10/31 07:48:39;;;;;;;0.40;0.20;;;;;;;13.56;81.80;100566.88;5076862;28;20436;-70
2021/10/31 07:51:07;;;;;;;0.40;0.30;;;;;;;13.63;81.27;100564.44;5076710;28;20441;-70
2021/10/31 07:53:38;;;;;;;0.40;0.30;;;;;;;13.66;80.69;100555.66;5076697;28;20445;-69
2021/10/31 07:56:04;;;;;;;0.40;0.30;;;;;;;13.70;81.43;100559.31;5076544;28;20791;-70
2021/10/31 07:58:31;;;;;;;0.40;0.30;;;;;;;13.77;81.51;100554.22;5076638;28;20539;-70
2021/10/31 08:00:57;;;;;;;0.40;0.30;;;;;;;13.80;82.01;100547.28;5076619;28;20449;-70
2021/10/31 08:03:24;;;;;;;0.40;0.30;;;;;;;13.86;82.40;100532.41;5076147;28;20950;-70
2021/10/31 08:05:50;;;;;;;0.40;0.30;;;;;;;13.83;82.56;100528.41;5076469;28;20421;-68
2021/10/31 08:08:21;;;;;;;0.40;0.30;;;;;;;13.87;82.02;100534.78;5076114;28;20978;-70
2021/10/31 08:10:47;;;;;;;0.40;0.20;;;;;;;13.91;82.31;100526.00;5076403;28;20425;-70
2021/10/31 08:13:21;;;;;;;0.87;0.87;;;;;;;13.99;82.04;100533.31;5076330;28;20444;-70
2021/10/31 08:15:48;;;;;;;0.40;0.30;;;;;;;14.04;82.00;100539.41;5076027;28;20938;-69
2021/10/31 08:18:14;;;;;;;0.40;0.20;;;;;;;14.10;81.48;100546.25;5075834;28;21005;-70
2021/10/31 08:20:41;;;;;;;0.40;0.30;;;;;;;14.12;81.44;100556.81;5076182;28;20480;-70
2021/10/31 08:23:07;;;;;;;0.40;0.30;;;;;;;14.14;81.24;100562.75;5076146;28;20445;-70
2021/10/31 08:25:35;;;;;;;0.40;0.20;;;;;;;14.08;81.30;100572.25;5076112;28;20498;-69
2021/10/31 08:28:03;;;;;;;0.40;0.30;;;;;;;14.08;82.04;100583.13;5076021;28;20465;-70
2021/10/31 08:30:31;;;;;;;0.40;0.30;;;;;;;14.12;81.46;100579.44;5076014;28;20437;-70
2021/10/31 08:33:00;;;;;;;0.50;0.40;;;;;;;14.16;81.86;100585.00;5075713;28;21000;-70
2021/10/31 08:35:26;;;;;;;0.40;0.30;;;;;;;14.22;81.72;100589.19;5075992;28;20445;-70
2021/10/31 08:37:53;;;;;;;0.40;0.30;;;;;;;14.25;81.67;100587.72;5075394;28;20986;-70
2021/10/31 08:40:19;;;;;;;0.90;0.90;;;;;;;14.25;82.17;100583.06;5075803;28;20434;-70
2021/10/31 08:42:47;;;;;;;0.40;0.30;;;;;;;14.26;82.20;100583.88;5075766;28;20457;-70
2021/10/31 08:45:14;;;;;;;0.40;0.30;;;;;;;14.34;82.08;100593.94;5075797;28;20445;-70
2021/10/31 08:47:40;;;;;;;0.40;0.27;;;;;;;14.39;81.53;100585.59;5075621;28;20458;-70
2021/10/31 08:50:08;;;;;;;0.40;0.30;;;;;;;14.44;81.82;100574.50;5074595;28;20448;-70
2021/10/31 08:52:35;;;;;;;1.80;1.70;;;;;;;14.44;82.09;100574.50;5075705;28;20474;-70
2021/10/31 08:55:02;;;;;;;0.40;0.20;;;;;;;14.51;81.76;100563.13;5075644;28;20441;-70
2021/10/31 08:57:29;;;;;;;0.40;0.30;;;;;;;14.59;81.04;100560.34;5075391;28;20571;-70
2021/10/31 08:59:58;;;;;;;0.40;0.30;;;;;;;14.66;81.26;100570.75;5075512;28;20441;-70
2021/10/31 09:02:26;;;;;;;0.50;0.50;;;;;;;14.75;80.83;100560.59;5075094;28;20935;-70
2021/10/31 09:04:52;;;;;;;0.40;0.20;;;;;;;14.79;81.04;100553.34;5074975;28;20457;-70
2021/10/31 09:07:18;;;;;;;0.40;0.30;;;;;;;14.81;81.40;100542.13;5075327;28;20468;-70
2021/10/31 09:09:45;;;;;;;0.40;0.20;;;;;;;14.94;80.49;100546.53;5075325;28;20444;-70
2021/10/31 09:12:12;;;;;;;0.40;0.30;;;;;;;15.08;79.82;100554.44;5075317;28;20444;-70
2021/10/31 09:14:39;;;;;;;0.70;0.70;;;;;;;15.12;80.67;100548.00;5074957;28;20819;-70
2021/10/31 09:17:07;;;;;;;0.40;0.30;;;;;;;15.18;80.01;100537.66;5075013;28;20488;-69
2021/10/31 09:19:34;;;;;;;0.40;0.30;;;;;;;15.23;79.80;100545.69;5075141;28;20430;-69
2021/10/31 09:22:01;;;;;;;0.40;0.30;;;;;;;15.27;80.00;100541.16;5075095;28;20468;-69
2021/10/31 09:24:28;;;;;;;0.40;0.27;;;;;;;15.35;79.23;100537.53;5075085;28;20861;-69
2021/10/31 09:26:55;;;;;;;1.27;1.17;;;;;;;15.38;79.49;100539.59;5074916;28;20464;-68
2021/10/31 09:29:21;;;;;;;0.40;0.30;;;;;;;15.48;78.41;100540.31;5074951;28;20462;-69
2021/10/31 09:31:48;;;;;;;0.40;0.27;;;;;;;15.54;78.57;100533.53;5095264;22;20494;-67
2021/10/31 09:34:15;;;;;;;0.40;0.30;;;;;;;15.66;78.35;100524.59;5054859;28;20446;-65
2021/10/31 09:36:42;;;;;;;0.40;0.30;;;;;;;15.78;78.14;100525.44;5054644;28;20850;-66
2021/10/31 09:39:10;;;;;;;0.40;0.30;;;;;;;15.88;77.55;100521.47;5054464;28;20940;-66
2021/10/31 09:41:37;;;;;;;0.40;0.30;;;;;;;15.97;77.46;100519.44;5054632;28;20473;-65
2021/10/31 09:44:13;;;;;;;0.40;0.30;;;;;;;16.03;76.64;100520.03;5054677;28;20465;-66
2021/10/31 09:46:40;;;;;;;0.40;0.30;;;;;;;16.14;76.64;100523.91;5054351;28;20880;-66
2021/10/31 09:49:10;;;;;;;0.40;0.30;;;;;;;16.24;76.34;100514.47;5054602;28;20473;-66
2021/10/31 09:51:38;;;;;;;0.40;0.30;;;;;;;16.35;76.26;100519.16;5054482;28;20466;-67
2021/10/31 09:54:05;;;;;;;0.40;0.30;;;;;;;16.48;75.68;100516.44;5053670;28;20450;-66
2021/10/31 09:56:35;;;;;;;0.40;0.30;;;;;;;16.58;75.51;100515.94;5054282;28;20450;-66
2021/10/31 09:59:01;;;;;;;0.40;0.30;;;;;;;16.50;75.55;100514.13;5054431;28;20445;-67
2021/10/31 10:01:51;;;;;;;0.40;0.30;;;;;;;16.55;75.11;100527.56;5054202;28;20454;-66
2021/10/31 10:04:24;;;;;;;0.40;0.30;;;;;;;16.62;75.34;100519.59;5054208;28;20437;-66
2021/10/31 10:06:53;;;;;;;0.40;0.30;;;;;;;16.70;74.56;100521.41;5054092;28;20425;-67
2021/10/31 10:09:19;;;;;;;0.40;0.30;;;;;;;16.71;74.39;100514.81;5054062;28;20438;-67
2021/10/31 10:11:47;;;;;;;0.40;0.30;;;;;;;16.76;74.17;100517.31;5053964;28;20454;-67
2021/10/31 10:14:19;;;;;;;0.40;0.30;;;;;;;16.84;73.64;100524.63;5053920;28;20449;-67
2021/10/31 10:16:47;;;;;;;0.40;0.20;;;;;;;16.87;74.50;100520.41;5053895;28;20433;-66
2021/10/31 10:19:19;;;;;;;0.50;0.40;;;;;;;17.00;74.18;100511.03;5053724;28;20940;-66
2021/10/31 10:22:01;;;;;;;0.40;0.30;;;;;;;17.19;73.04;100506.88;5053589;28;20461;-67
2021/10/31 10:24:28;;;;;;;0.40;0.30;;;;;;;17.36;73.80;100498.34;5053131;28;20449;-66
2021/10/31 10:26:58;;;;;;;0.40;0.30;;;;;;;17.59;72.80;100496.63;5053880;28;20496;-66
2021/10/31 10:29:26;;;;;;;0.40;0.30;;;;;;;17.85;71.92;100501.66;5053765;28;20438;-66
2021/10/31 10:31:56;;;;;;;0.40;0.30;;;;;;;17.93;70.59;100499.91;5053218;28;21002;-67
2021/10/31 10:34:35;;;;;;;0.40;0.20;;;;;;;18.07;69.51;100491.25;5053363;28;20465;-66
2021/10/31 10:37:07;;;;;;;0.40;0.30;;;;;;;18.10;69.99;100488.56;5053453;28;20478;-68
2021/10/31 10:39:35;;;;;;;0.40;0.27;;;;;;;18.19;69.09;100487.59;5053512;28;20445;-67
2021/10/31 10:42:01;;;;;;;0.40;0.20;;;;;;;18.24;68.75;100490.88;5053230;28;20967;-67
2021/10/31 10:44:30;;;;;;;0.40;0.30;;;;;;;18.12;69.88;100491.75;5053304;28;20962;-68
2021/10/31 10:47:00;;;;;;;0.50;0.30;;;;;;;18.16;69.96;100480.91;5053606;28;20904;-67
2021/10/31 10:49:28;;;;;;;0.40;0.20;;;;;;;18.26;68.81;100482.28;5053523;28;20449;-67
2021/10/31 10:52:22;;;;;;;0.40;0.20;;;;;;;18.36;68.54;100482.53;5053140;28;20470;-68
2021/10/31 10:54:54;;;;;;;0.40;0.30;;;;;;;18.46;67.69;100472.16;5053229;28;20799;-68
2021/10/31 10:57:22;;;;;;;0.40;0.20;;;;;;;18.41;67.55;100474.03;5053376;28;20462;-68
2021/10/31 10:59:54;;;;;;;0.40;0.30;;;;;;;18.34;68.24;100462.13;5053384;28;20484;-68
2021/10/31 11:02:22;;;;;;;0.40;0.30;;;;;;;18.53;68.22;100464.09;5052760;28;20468;-67
2021/10/31 11:04:56;;;;;;;0.40;0.30;;;;;;;18.81;68.22;100464.75;5033434;28;20439;-67
2021/10/31 11:07:36;;;;;;;0.40;0.20;;;;;;;19.23;66.68;100463.25;5048579;28;20989;-67
2021/10/31 11:10:08;;;;;;;0.40;0.30;;;;;;;19.53;64.42;100460.69;5053312;28;20541;-67
2021/10/31 11:12:36;;;;;;;0.40;0.20;;;;;;;19.72;64.11;100460.66;5052392;28;20971;-67
2021/10/31 11:15:06;;;;;;;0.40;0.30;;;;;;;20.03;62.11;100456.09;5053138;28;20450;-67
2021/10/31 11:17:33;;;;;;;0.40;0.20;;;;;;;20.47;61.62;100461.09;5052666;28;21050;-67
2021/10/31 11:20:00;;;;;;;0.40;0.20;;;;;;;21.02;59.91;100455.94;5052761;28;20442;-66
2021/10/31 11:22:29;;;;;;;0.40;0.20;;;;;;;21.53;56.75;100453.38;5052758;28;20990;-67
2021/10/31 11:24:58;;;;;;;0.40;0.30;;;;;;;21.89;55.22;100448.19;5052818;28;20481;-67
2021/10/31 11:27:27;;;;;;;0.40;0.27;;;;;;;22.60;54.96;100448.72;5052909;28;20445;-67
2021/10/31 11:29:55;;;;;;;0.40;0.30;;;;;;;23.07;51.61;100447.00;5052442;28;20476;-67